sensor_id;sensor_type;location;lat;lon;timestamp;pressure;altitude;pressure_sealevel;temperature;humidity
13934;BME280;7039;52.168;9.866;2023-03-25T00:11:21;99201.63;;;11.16;74.80
13934;BME280;7039;52.168;9.866;2023-03-25T00:13:49;99195.41;;;11.06;75.05
13934;BME280;7039;52.168;9.866;2023-03-25T00:16:20;99189.69;;;11.01;75.17
13934;BME280;7039;52.168;9.866;2023-03-25T00:18:48;99198.66;;;10.97;75.14
13934;BME280;7039;52.168;9.866;2023-03-25T00:21:18;99196.38;;;10.92;74.93
13934;BME280;7039;52.168;9.866;2023-03-25T00:23:50;99189.13;;;10.84;75.26
13934;BME280;7039;52.168;9.866;2023-03-25T00:26:18;99192.16;;;10.78;75.13
13934;BME280;7039;52.168;9.866;2023-03-25T00:28:53;99194.84;;;10.90;74.75
13934;BME280;7039;52.168;9.866;2023-03-25T00:42:44;99188.13;;;10.74;75.13
13934;BME280;7039;52.168;9.866;2023-03-25T00:45:20;99197.59;;;10.75;74.81
13934;BME280;7039;52.168;9.866;2023-03-25T00:47:51;99202.50;;;10.80;74.56
13934;BME280;7039;52.168;9.866;2023-03-25T00:50:19;99189.13;;;10.84;74.42
13934;BME280;7039;52.168;9.866;2023-03-25T00:55:26;99205.59;;;10.61;75.45
13934;BME280;7039;52.168;9.866;2023-03-25T00:58:02;99208.66;;;10.79;75.03
13934;BME280;7039;52.168;9.866;2023-03-25T01:03:14;99190.50;;;10.77;74.39
13934;BME280;7039;52.168;9.866;2023-03-25T01:13:55;99208.91;;;11.00;74.03
13934;BME280;7039;52.168;9.866;2023-03-25T01:16:37;99195.56;;;10.92;74.06
13934;BME280;7039;52.168;9.866;2023-03-25T01:19:45;99199.47;;;10.86;74.29
13934;BME280;7039;52.168;9.866;2023-03-25T01:22:18;99184.06;;;10.94;73.85
13934;BME280;7039;52.168;9.866;2023-03-25T01:27:50;99197.03;;;11.20;73.45
13934;BME280;7039;52.168;9.866;2023-03-25T01:30:37;99192.09;;;11.04;73.63
13934;BME280;7039;52.168;9.866;2023-03-25T01:33:10;99189.88;;;11.11;73.64
13934;BME280;7039;52.168;9.866;2023-03-25T01:35:43;99187.41;;;10.96;74.38
13934;BME280;7039;52.168;9.866;2023-03-25T01:38:14;99181.78;;;10.90;73.45
13934;BME280;7039;52.168;9.866;2023-03-25T01:40:50;99187.13;;;11.12;73.58
13934;BME280;7039;52.168;9.866;2023-03-25T01:43:20;99183.56;;;10.89;74.55
13934;BME280;7039;52.168;9.866;2023-03-25T01:46:13;99185.69;;;10.84;74.94
13934;BME280;7039;52.168;9.866;2023-03-25T01:51:24;99185.41;;;10.76;74.69
13934;BME280;7039;52.168;9.866;2023-03-25T01:53:59;99174.69;;;10.68;75.30
13934;BME280;7039;52.168;9.866;2023-03-25T01:57:01;99187.19;;;10.62;75.17
13934;BME280;7039;52.168;9.866;2023-03-25T02:00:36;99186.59;;;10.59;76.07
13934;BME280;7039;52.168;9.866;2023-03-25T02:03:47;99180.25;;;10.63;75.22
13934;BME280;7039;52.168;9.866;2023-03-25T02:06:47;99188.09;;;10.50;76.09
13934;BME280;7039;52.168;9.866;2023-03-25T02:09:52;99191.88;;;10.33;77.81
13934;BME280;7039;52.168;9.866;2023-03-25T02:13:05;99193.94;;;10.28;79.88
13934;BME280;7039;52.168;9.866;2023-03-25T02:16:37;99193.53;;;10.09;81.99
13934;BME280;7039;52.168;9.866;2023-03-25T02:34:15;99196.53;;;9.90;80.96
13934;BME280;7039;52.168;9.866;2023-03-25T02:49:48;99196.13;;;9.96;78.70
13934;BME280;7039;52.168;9.866;2023-03-25T02:56:26;99179.19;;;9.90;78.57
13934;BME280;7039;52.168;9.866;2023-03-25T02:59:57;99180.50;;;9.96;78.08
13934;BME280;7039;52.168;9.866;2023-03-25T03:03:00;99184.06;;;9.95;78.32
13934;BME280;7039;52.168;9.866;2023-03-25T03:06:12;99182.91;;;9.86;77.61
13934;BME280;7039;52.168;9.866;2023-03-25T03:16:31;99172.41;;;9.75;77.84
13934;BME280;7039;52.168;9.866;2023-03-25T03:20:07;99174.56;;;9.68;77.28
13934;BME280;7039;52.168;9.866;2023-03-25T03:28:15;99185.53;;;9.86;76.17
13934;BME280;7039;52.168;9.866;2023-03-25T03:38:35;99150.09;;;9.71;75.09
13934;BME280;7039;52.168;9.866;2023-03-25T03:47:35;99170.53;;;9.77;74.41
13934;BME280;7039;52.168;9.866;2023-03-25T03:57:32;99189.69;;;9.89;74.26
13934;BME280;7039;52.168;9.866;2023-03-25T04:05:54;99189.06;;;9.98;74.34
13934;BME280;7039;52.168;9.866;2023-03-25T04:09:04;99183.31;;;9.80;74.02
13934;BME280;7039;52.168;9.866;2023-03-25T04:15:47;99185.50;;;10.12;73.56
13934;BME280;7039;52.168;9.866;2023-03-25T04:18:54;99199.25;;;10.14;74.21
13934;BME280;7039;52.168;9.866;2023-03-25T04:28:26;99197.41;;;9.37;79.32
13934;BME280;7039;52.168;9.866;2023-03-25T04:37:47;99210.13;;;8.32;88.73
13934;BME280;7039;52.168;9.866;2023-03-25T04:43:16;99190.38;;;7.86;90.05
13934;BME280;7039;52.168;9.866;2023-03-25T04:49:27;99207.78;;;7.70;91.69
13934;BME280;7039;52.168;9.866;2023-03-25T04:52:04;99187.72;;;7.58;93.30
13934;BME280;7039;52.168;9.866;2023-03-25T04:58:26;99196.72;;;7.66;94.56
13934;BME280;7039;52.168;9.866;2023-03-25T05:18:08;99191.22;;;8.15;94.33
13934;BME280;7039;52.168;9.866;2023-03-25T05:20:59;99183.88;;;7.93;94.45
13934;BME280;7039;52.168;9.866;2023-03-25T05:27:06;99190.38;;;8.29;90.37
13934;BME280;7039;52.168;9.866;2023-03-25T05:29:57;99177.56;;;8.26;89.02
13934;BME280;7039;52.168;9.866;2023-03-25T05:32:35;99192.97;;;8.29;89.10
13934;BME280;7039;52.168;9.866;2023-03-25T05:36:07;99187.03;;;8.42;87.24
13934;BME280;7039;52.168;9.866;2023-03-25T05:39:03;99204.06;;;8.74;86.08
13934;BME280;7039;52.168;9.866;2023-03-25T05:42:09;99192.38;;;8.67;84.82
13934;BME280;7039;52.168;9.866;2023-03-25T05:48:28;99198.28;;;8.84;82.28
13934;BME280;7039;52.168;9.866;2023-03-25T06:25:05;99212.00;;;9.40;79.04
13934;BME280;7039;52.168;9.866;2023-03-25T06:38:00;99214.41;;;9.56;77.90
13934;BME280;7039;52.168;9.866;2023-03-25T06:59:30;99215.72;;;9.76;75.61
13934;BME280;7039;52.168;9.866;2023-03-25T07:02:14;99205.09;;;9.66;76.68
13934;BME280;7039;52.168;9.866;2023-03-25T07:04:56;99220.06;;;9.50;76.43
13934;BME280;7039;52.168;9.866;2023-03-25T07:07:33;99215.94;;;9.73;75.89
13934;BME280;7039;52.168;9.866;2023-03-25T07:10:00;99222.69;;;9.75;77.20
13934;BME280;7039;52.168;9.866;2023-03-25T07:12:36;99225.22;;;9.77;77.13
13934;BME280;7039;52.168;9.866;2023-03-25T07:15:05;99219.06;;;9.65;76.72
13934;BME280;7039;52.168;9.866;2023-03-25T07:20:39;99236.13;;;9.82;77.06
13934;BME280;7039;52.168;9.866;2023-03-25T08:00:42;99242.81;;;9.86;76.07
13934;BME280;7039;52.168;9.866;2023-03-25T08:03:13;99260.63;;;9.79;77.07
13934;BME280;7039;52.168;9.866;2023-03-25T08:05:47;99243.34;;;9.91;77.73
13934;BME280;7039;52.168;9.866;2023-03-25T08:49:08;99244.63;;;10.37;74.64
13934;BME280;7039;52.168;9.866;2023-03-25T08:51:35;99238.75;;;10.46;75.29
13934;BME280;7039;52.168;9.866;2023-03-25T08:54:03;99226.53;;;10.59;74.65
13934;BME280;7039;52.168;9.866;2023-03-25T08:56:32;99234.78;;;10.53;74.15
13934;BME280;7039;52.168;9.866;2023-03-25T08:58:58;99235.34;;;10.33;74.93
13934;BME280;7039;52.168;9.866;2023-03-25T09:01:25;99237.94;;;10.58;73.88
13934;BME280;7039;52.168;9.866;2023-03-25T09:03:52;99227.41;;;10.47;74.79
13934;BME280;7039;52.168;9.866;2023-03-25T09:06:21;99244.84;;;10.34;74.71
13934;BME280;7039;52.168;9.866;2023-03-25T09:08:52;99224.59;;;10.12;74.50
13934;BME280;7039;52.168;9.866;2023-03-25T09:11:20;99237.03;;;10.34;76.10
13934;BME280;7039;52.168;9.866;2023-03-25T09:13:46;99218.88;;;10.07;74.51
13934;BME280;7039;52.168;9.866;2023-03-25T09:16:13;99224.72;;;10.36;75.18
13934;BME280;7039;52.168;9.866;2023-03-25T09:18:39;99244.38;;;10.40;73.23
13934;BME280;7039;52.168;9.866;2023-03-25T09:21:06;99257.00;;;10.46;72.56
13934;BME280;7039;52.168;9.866;2023-03-25T09:23:34;99240.13;;;10.52;72.99
13934;BME280;7039;52.168;9.866;2023-03-25T09:26:01;99246.75;;;10.69;72.40
13934;BME280;7039;52.168;9.866;2023-03-25T09:28:30;99239.50;;;10.48;71.67
13934;BME280;7039;52.168;9.866;2023-03-25T09:31:07;99232.13;;;10.29;71.94
13934;BME280;7039;52.168;9.866;2023-03-25T09:33:34;99244.78;;;10.21;72.16
13934;BME280;7039;52.168;9.866;2023-03-25T09:36:01;99244.59;;;10.50;72.61
13934;BME280;7039;52.168;9.866;2023-03-25T09:38:28;99236.97;;;10.59;70.24
13934;BME280;7039;52.168;9.866;2023-03-25T09:40:55;99236.31;;;11.05;70.33
13934;BME280;7039;52.168;9.866;2023-03-25T09:43:47;99249.41;;;11.17;69.52
13934;BME280;7039;52.168;9.866;2023-03-25T09:46:17;99250.53;;;11.01;69.32
13934;BME280;7039;52.168;9.866;2023-03-25T09:48:45;99244.00;;;11.20;69.72
13934;BME280;7039;52.168;9.866;2023-03-25T09:51:17;99243.91;;;11.33;68.06
13934;BME280;7039;52.168;9.866;2023-03-25T09:53:47;99239.09;;;11.15;68.94
13934;BME280;7039;52.168;9.866;2023-03-25T09:56:20;99244.88;;;11.32;69.48
13934;BME280;7039;52.168;9.866;2023-03-25T09:58:50;99236.59;;;11.38;69.18
13934;BME280;7039;52.168;9.866;2023-03-25T10:01:26;99243.88;;;11.21;69.16
13934;BME280;7039;52.168;9.866;2023-03-25T10:04:00;99257.47;;;11.14;69.16
13934;BME280;7039;52.168;9.866;2023-03-25T10:06:29;99237.84;;;11.08;70.29
13934;BME280;7039;52.168;9.866;2023-03-25T10:09:09;99238.81;;;11.07;68.86
13934;BME280;7039;52.168;9.866;2023-03-25T10:11:44;99228.09;;;10.99;69.84
13934;BME280;7039;52.168;9.866;2023-03-25T10:14:18;99237.81;;;11.21;69.08
13934;BME280;7039;52.168;9.866;2023-03-25T10:16:56;99247.59;;;10.69;69.71
13934;BME280;7039;52.168;9.866;2023-03-25T10:19:34;99226.28;;;10.75;69.58
13934;BME280;7039;52.168;9.866;2023-03-25T10:22:03;99241.91;;;11.12;69.61
13934;BME280;7039;52.168;9.866;2023-03-25T10:24:34;99237.84;;;11.08;68.63
13934;BME280;7039;52.168;9.866;2023-03-25T10:27:11;99234.16;;;11.23;67.44
13934;BME280;7039;52.168;9.866;2023-03-25T10:29:44;99231.44;;;11.25;67.86
13934;BME280;7039;52.168;9.866;2023-03-25T10:32:16;99243.75;;;11.23;67.83
13934;BME280;7039;52.168;9.866;2023-03-25T10:34:47;99241.28;;;11.57;68.06
13934;BME280;7039;52.168;9.866;2023-03-25T10:37:20;99244.97;;;11.89;67.13
13934;BME280;7039;52.168;9.866;2023-03-25T10:39:54;99246.81;;;12.34;67.38
13934;BME280;7039;52.168;9.866;2023-03-25T10:42:26;99239.19;;;11.97;64.89
13934;BME280;7039;52.168;9.866;2023-03-25T10:44:56;99234.44;;;12.02;66.26
13934;BME280;7039;52.168;9.866;2023-03-25T10:47:26;99251.06;;;11.66;66.50
13934;BME280;7039;52.168;9.866;2023-03-25T10:49:54;99236.97;;;11.44;68.33
13934;BME280;7039;52.168;9.866;2023-03-25T10:52:23;99229.84;;;11.46;68.10
13934;BME280;7039;52.168;9.866;2023-03-25T10:54:52;99218.97;;;11.28;67.88
13934;BME280;7039;52.168;9.866;2023-03-25T10:57:22;99234.44;;;11.07;69.28
13934;BME280;7039;52.168;9.866;2023-03-25T10:59:58;99232.53;;;11.10;68.18
13934;BME280;7039;52.168;9.866;2023-03-25T11:02:28;99222.03;;;10.98;67.77
13934;BME280;7039;52.168;9.866;2023-03-25T11:04:58;99210.78;;;11.22;66.64
13934;BME280;7039;52.168;9.866;2023-03-25T11:07:29;99228.19;;;11.21;66.77
13934;BME280;7039;52.168;9.866;2023-03-25T11:10:14;99222.88;;;11.47;66.28
13934;BME280;7039;52.168;9.866;2023-03-25T11:12:42;99215.31;;;11.66;66.64
13934;BME280;7039;52.168;9.866;2023-03-25T11:15:14;99231.69;;;11.93;64.62
13934;BME280;7039;52.168;9.866;2023-03-25T11:17:42;99208.28;;;11.91;65.61
13934;BME280;7039;52.168;9.866;2023-03-25T11:20:17;99226.13;;;12.08;64.62
13934;BME280;7039;52.168;9.866;2023-03-25T11:22:46;99218.06;;;12.11;65.22
13934;BME280;7039;52.168;9.866;2023-03-25T11:25:18;99191.06;;;11.88;65.00
13934;BME280;7039;52.168;9.866;2023-03-25T11:27:47;99218.50;;;12.05;65.16
13934;BME280;7039;52.168;9.866;2023-03-25T11:30:19;99262.75;;;11.84;65.18
13934;BME280;7039;52.168;9.866;2023-03-25T11:32:56;99220.44;;;12.26;66.40
13934;BME280;7039;52.168;9.866;2023-03-25T11:35:25;99217.22;;;12.22;66.11
13934;BME280;7039;52.168;9.866;2023-03-25T11:37:54;99219.00;;;11.99;66.06
13934;BME280;7039;52.168;9.866;2023-03-25T11:40:22;99231.72;;;12.04;64.95
13934;BME280;7039;52.168;9.866;2023-03-25T11:42:51;99220.78;;;12.44;64.55
13934;BME280;7039;52.168;9.866;2023-03-25T11:45:22;99217.34;;;12.09;64.67
13934;BME280;7039;52.168;9.866;2023-03-25T11:47:51;99211.84;;;11.90;63.99
13934;BME280;7039;52.168;9.866;2023-03-25T11:50:25;99200.38;;;11.68;65.48
13934;BME280;7039;52.168;9.866;2023-03-25T11:52:53;99210.91;;;11.67;65.30
13934;BME280;7039;52.168;9.866;2023-03-25T11:55:23;99215.44;;;11.65;64.86
13934;BME280;7039;52.168;9.866;2023-03-25T11:57:53;99217.78;;;11.92;65.97
13934;BME280;7039;52.168;9.866;2023-03-25T12:00:37;99217.31;;;11.98;66.46
13934;BME280;7039;52.168;9.866;2023-03-25T12:03:14;99225.56;;;11.81;65.57
13934;BME280;7039;52.168;9.866;2023-03-25T12:05:42;99214.84;;;11.61;66.24
13934;BME280;7039;52.168;9.866;2023-03-25T12:08:11;99202.84;;;11.59;65.70
13934;BME280;7039;52.168;9.866;2023-03-25T12:10:51;99191.78;;;11.55;66.87
13934;BME280;7039;52.168;9.866;2023-03-25T12:13:38;99214.84;;;12.19;66.26
13934;BME280;7039;52.168;9.866;2023-03-25T12:16:18;99218.06;;;12.57;64.12
13934;BME280;7039;52.168;9.866;2023-03-25T12:18:55;99222.44;;;12.67;64.63
13934;BME280;7039;52.168;9.866;2023-03-25T12:21:37;99206.41;;;12.61;64.79
13934;BME280;7039;52.168;9.866;2023-03-25T12:24:15;99195.00;;;12.39;63.31
13934;BME280;7039;52.168;9.866;2023-03-25T12:26:50;99188.59;;;12.21;64.32
13934;BME280;7039;52.168;9.866;2023-03-25T12:29:33;99187.75;;;12.09;64.61
13934;BME280;7039;52.168;9.866;2023-03-25T12:32:12;99182.25;;;11.89;65.25
13934;BME280;7039;52.168;9.866;2023-03-25T12:34:51;99192.81;;;11.77;67.46
13934;BME280;7039;52.168;9.866;2023-03-25T12:37:29;99192.56;;;11.09;73.23
13934;BME280;7039;52.168;9.866;2023-03-25T12:40:15;99200.84;;;10.79;77.11
13934;BME280;7039;52.168;9.866;2023-03-25T12:42:54;99203.38;;;10.68;80.98
13934;BME280;7039;52.168;9.866;2023-03-25T12:45:50;99203.47;;;10.66;82.30
13934;BME280;7039;52.168;9.866;2023-03-25T12:48:31;99216.75;;;10.63;80.66
13934;BME280;7039;52.168;9.866;2023-03-25T12:51:06;99202.16;;;10.84;79.20
13934;BME280;7039;52.168;9.866;2023-03-25T12:53:50;99208.28;;;11.20;78.49
13934;BME280;7039;52.168;9.866;2023-03-25T12:56:33;99201.13;;;11.11;73.49
13934;BME280;7039;52.168;9.866;2023-03-25T12:59:16;99195.34;;;11.19;73.31
13934;BME280;7039;52.168;9.866;2023-03-25T13:01:52;99202.00;;;11.47;72.96
13934;BME280;7039;52.168;9.866;2023-03-25T13:04:34;99198.75;;;11.43;70.39
13934;BME280;7039;52.168;9.866;2023-03-25T13:07:07;99180.63;;;11.53;71.80
13934;BME280;7039;52.168;9.866;2023-03-25T13:09:47;99205.78;;;12.01;71.66
13934;BME280;7039;52.168;9.866;2023-03-25T13:12:26;99208.84;;;11.83;69.32
13934;BME280;7039;52.168;9.866;2023-03-25T13:15:01;99201.84;;;11.84;68.85
13934;BME280;7039;52.168;9.866;2023-03-25T13:17:31;99202.84;;;12.28;69.55
13934;BME280;7039;52.168;9.866;2023-03-25T13:20:03;99204.88;;;12.58;67.49
13934;BME280;7039;52.168;9.866;2023-03-25T13:22:37;99189.97;;;13.13;66.73
13934;BME280;7039;52.168;9.866;2023-03-25T13:25:16;99194.19;;;13.26;66.90
13934;BME280;7039;52.168;9.866;2023-03-25T13:27:45;99189.66;;;12.95;65.66
13934;BME280;7039;52.168;9.866;2023-03-25T13:30:16;99186.91;;;12.53;66.68
13934;BME280;7039;52.168;9.866;2023-03-25T13:32:48;99163.16;;;12.23;66.32
13934;BME280;7039;52.168;9.866;2023-03-25T13:35:26;99178.50;;;12.27;66.93
13934;BME280;7039;52.168;9.866;2023-03-25T13:37:57;99184.31;;;12.31;66.89
13934;BME280;7039;52.168;9.866;2023-03-25T13:40:27;99175.97;;;12.03;66.88
13934;BME280;7039;52.168;9.866;2023-03-25T13:43:00;99163.41;;;11.97;68.05
13934;BME280;7039;52.168;9.866;2023-03-25T13:45:31;99165.59;;;11.79;68.40
13934;BME280;7039;52.168;9.866;2023-03-25T13:48:04;99177.47;;;11.72;68.63
13934;BME280;7039;52.168;9.866;2023-03-25T13:50:34;99185.00;;;11.88;70.25
13934;BME280;7039;52.168;9.866;2023-03-25T13:53:04;99189.09;;;11.68;69.37
13934;BME280;7039;52.168;9.866;2023-03-25T13:55:36;99175.59;;;11.74;70.75
13934;BME280;7039;52.168;9.866;2023-03-25T13:58:20;99195.22;;;11.91;69.79
13934;BME280;7039;52.168;9.866;2023-03-25T14:01:02;99192.56;;;11.44;71.61
13934;BME280;7039;52.168;9.866;2023-03-25T14:06:42;99198.31;;;10.90;75.72
13934;BME280;7039;52.168;9.866;2023-03-25T14:09:40;99216.19;;;10.71;77.01
13934;BME280;7039;52.168;9.866;2023-03-25T14:12:15;99232.25;;;10.64;79.02
13934;BME280;7039;52.168;9.866;2023-03-25T14:14:45;99243.00;;;10.60;79.78
13934;BME280;7039;52.168;9.866;2023-03-25T14:17:15;99239.47;;;10.61;80.51
13934;BME280;7039;52.168;9.866;2023-03-25T14:19:47;99237.53;;;10.52;81.55
13934;BME280;7039;52.168;9.866;2023-03-25T14:22:21;99239.03;;;10.67;82.81
13934;BME280;7039;52.168;9.866;2023-03-25T14:24:48;99241.47;;;10.57;81.61
13934;BME280;7039;52.168;9.866;2023-03-25T14:27:22;99228.56;;;10.80;81.67
13934;BME280;7039;52.168;9.866;2023-03-25T14:29:53;99228.28;;;10.72;80.41
13934;BME280;7039;52.168;9.866;2023-03-25T14:32:31;99223.50;;;11.02;80.82
13934;BME280;7039;52.168;9.866;2023-03-25T14:41:13;99195.53;;;11.04;76.64
13934;BME280;7039;52.168;9.866;2023-03-25T14:43:43;99217.19;;;11.18;77.02
13934;BME280;7039;52.168;9.866;2023-03-25T14:46:16;99201.28;;;10.97;76.79
13934;BME280;7039;52.168;9.866;2023-03-25T14:48:44;99202.28;;;11.07;76.70
13934;BME280;7039;52.168;9.866;2023-03-25T14:51:19;99214.19;;;11.11;76.12
13934;BME280;7039;52.168;9.866;2023-03-25T14:53:55;99235.78;;;11.13;76.35
13934;BME280;7039;52.168;9.866;2023-03-25T14:56:32;99231.00;;;11.07;77.35
13934;BME280;7039;52.168;9.866;2023-03-25T14:59:06;99218.75;;;11.07;77.69
13934;BME280;7039;52.168;9.866;2023-03-25T15:01:35;99236.84;;;11.11;77.68
13934;BME280;7039;52.168;9.866;2023-03-25T15:04:10;99234.00;;;11.14;77.62
13934;BME280;7039;52.168;9.866;2023-03-25T15:06:39;99226.34;;;10.99;77.27
13934;BME280;7039;52.168;9.866;2023-03-25T15:09:10;99224.47;;;10.89;77.97
13934;BME280;7039;52.168;9.866;2023-03-25T15:11:39;99220.91;;;10.65;77.32
13934;BME280;7039;52.168;9.866;2023-03-25T15:14:08;99224.50;;;10.76;77.31
13934;BME280;7039;52.168;9.866;2023-03-25T15:16:38;99223.50;;;11.02;76.96
13934;BME280;7039;52.168;9.866;2023-03-25T15:19:20;99196.97;;;10.72;77.60
13934;BME280;7039;52.168;9.866;2023-03-25T15:22:16;99200.06;;;10.90;77.88
13934;BME280;7039;52.168;9.866;2023-03-25T15:24:50;99203.44;;;11.03;78.91
13934;BME280;7039;52.168;9.866;2023-03-25T15:27:30;99199.19;;;11.37;78.09
13934;BME280;7039;52.168;9.866;2023-03-25T15:30:09;99197.63;;;11.59;77.36
13934;BME280;7039;52.168;9.866;2023-03-25T15:32:53;99195.22;;;11.91;75.45
13934;BME280;7039;52.168;9.866;2023-03-25T15:35:35;99190.25;;;12.10;74.97
13934;BME280;7039;52.168;9.866;2023-03-25T15:38:25;99196.16;;;12.01;75.21
13934;BME280;7039;52.168;9.866;2023-03-25T15:41:11;99196.50;;;11.85;74.66
13934;BME280;7039;52.168;9.866;2023-03-25T15:43:49;99197.88;;;11.78;74.43
13934;BME280;7039;52.168;9.866;2023-03-25T15:46:27;99188.72;;;11.61;75.02
13934;BME280;7039;52.168;9.866;2023-03-25T15:49:19;99206.78;;;11.05;77.28
13934;BME280;7039;52.168;9.866;2023-03-25T15:52:02;99194.69;;;10.17;80.86
13934;BME280;7039;52.168;9.866;2023-03-25T15:54:36;99200.94;;;10.02;85.00
13934;BME280;7039;52.168;9.866;2023-03-25T15:57:13;99217.28;;;9.26;86.68
13934;BME280;7039;52.168;9.866;2023-03-25T15:59:43;99189.84;;;9.07;88.80
13934;BME280;7039;52.168;9.866;2023-03-25T16:02:24;99190.81;;;8.92;90.84
13934;BME280;7039;52.168;9.866;2023-03-25T16:04:53;99202.91;;;8.93;91.76
13934;BME280;7039;52.168;9.866;2023-03-25T16:07:22;99207.91;;;8.96;92.06
13934;BME280;7039;52.168;9.866;2023-03-25T16:09:50;99195.00;;;8.94;91.98
13934;BME280;7039;52.168;9.866;2023-03-25T16:12:20;99203.44;;;8.98;91.72
13934;BME280;7039;52.168;9.866;2023-03-25T16:14:47;99212.38;;;8.94;91.99
13934;BME280;7039;52.168;9.866;2023-03-25T16:17:16;99232.94;;;8.84;93.00
13934;BME280;7039;52.168;9.866;2023-03-25T16:19:46;99238.63;;;9.04;92.79
13934;BME280;7039;52.168;9.866;2023-03-25T16:22:18;99234.78;;;9.36;92.76
13934;BME280;7039;52.168;9.866;2023-03-25T16:24:47;99231.31;;;9.76;90.22
13934;BME280;7039;52.168;9.866;2023-03-25T16:27:21;99235.00;;;10.37;87.99
13934;BME280;7039;52.168;9.866;2023-03-25T16:29:49;99217.50;;;10.76;85.54
13934;BME280;7039;52.168;9.866;2023-03-25T16:32:19;99209.38;;;10.18;85.84
13934;BME280;7039;52.168;9.866;2023-03-25T16:34:46;99206.78;;;9.93;86.03
13934;BME280;7039;52.168;9.866;2023-03-25T16:37:14;99217.94;;;9.95;85.61
13934;BME280;7039;52.168;9.866;2023-03-25T16:39:42;99216.25;;;9.94;85.21
13934;BME280;7039;52.168;9.866;2023-03-25T16:42:14;99217.56;;;9.61;85.18
13934;BME280;7039;52.168;9.866;2023-03-25T16:44:44;99217.16;;;9.67;84.52
13934;BME280;7039;52.168;9.866;2023-03-25T16:47:11;99216.06;;;9.44;84.99
13934;BME280;7039;52.168;9.866;2023-03-25T16:49:41;99218.94;;;9.67;86.16
13934;BME280;7039;52.168;9.866;2023-03-25T16:52:14;99224.44;;;9.49;87.85
13934;BME280;7039;52.168;9.866;2023-03-25T16:54:45;99228.84;;;9.34;87.95
13934;BME280;7039;52.168;9.866;2023-03-25T16:57:16;99192.50;;;9.33;88.79
13934;BME280;7039;52.168;9.866;2023-03-25T16:59:46;99180.75;;;9.40;88.14
13934;BME280;7039;52.168;9.866;2023-03-25T17:02:24;99208.88;;;9.35;88.18
13934;BME280;7039;52.168;9.866;2023-03-25T17:04:52;99202.13;;;9.45;87.69
13934;BME280;7039;52.168;9.866;2023-03-25T17:07:23;99208.00;;;9.22;87.74
13934;BME280;7039;52.168;9.866;2023-03-25T17:09:52;99210.72;;;9.33;87.25
13934;BME280;7039;52.168;9.866;2023-03-25T17:12:21;99226.03;;;9.25;87.78
13934;BME280;7039;52.168;9.866;2023-03-25T17:14:51;99211.25;;;9.25;87.40
13934;BME280;7039;52.168;9.866;2023-03-25T17:17:30;99225.88;;;9.53;86.25
13934;BME280;7039;52.168;9.866;2023-03-25T17:20:01;99219.63;;;9.56;86.17
13934;BME280;7039;52.168;9.866;2023-03-25T17:22:32;99227.88;;;9.50;85.90
13934;BME280;7039;52.168;9.866;2023-03-25T17:25:14;99234.13;;;9.60;84.57
13934;BME280;7039;52.168;9.866;2023-03-25T17:27:42;99226.25;;;9.74;84.90
13934;BME280;7039;52.168;9.866;2023-03-25T17:30:19;99221.34;;;9.70;84.16
13934;BME280;7039;52.168;9.866;2023-03-25T17:32:46;99222.78;;;9.74;83.72
13934;BME280;7039;52.168;9.866;2023-03-25T17:35:18;99235.31;;;9.94;83.52
13934;BME280;7039;52.168;9.866;2023-03-25T17:37:47;99219.69;;;9.94;83.24
13934;BME280;7039;52.168;9.866;2023-03-25T17:40:20;99233.66;;;9.93;83.49
13934;BME280;7039;52.168;9.866;2023-03-25T17:42:47;99249.56;;;9.76;83.37
13934;BME280;7039;52.168;9.866;2023-03-25T17:45:15;99249.69;;;9.87;83.98
13934;BME280;7039;52.168;9.866;2023-03-25T17:47:42;99253.38;;;9.57;84.75
13934;BME280;7039;52.168;9.866;2023-03-25T17:50:13;99258.66;;;9.43;86.03
13934;BME280;7039;52.168;9.866;2023-03-25T17:52:39;99257.53;;;9.47;86.04
13934;BME280;7039;52.168;9.866;2023-03-25T17:55:07;99269.38;;;9.38;86.29
13934;BME280;7039;52.168;9.866;2023-03-25T17:57:33;99263.34;;;9.38;86.51
13934;BME280;7039;52.168;9.866;2023-03-25T18:00:00;99262.69;;;9.34;86.38
13934;BME280;7039;52.168;9.866;2023-03-25T18:02:26;99272.13;;;9.23;86.91
13934;BME280;7039;52.168;9.866;2023-03-25T18:04:54;99259.03;;;9.37;85.15
13934;BME280;7039;52.168;9.866;2023-03-25T18:07:21;99265.97;;;9.24;84.85
13934;BME280;7039;52.168;9.866;2023-03-25T18:09:47;99273.31;;;9.31;84.69
13934;BME280;7039;52.168;9.866;2023-03-25T18:12:14;99271.47;;;9.46;84.69
13934;BME280;7039;52.168;9.866;2023-03-25T18:14:40;99261.28;;;9.29;84.47
13934;BME280;7039;52.168;9.866;2023-03-25T18:17:09;99266.22;;;9.33;84.44
13934;BME280;7039;52.168;9.866;2023-03-25T18:19:36;99275.78;;;9.33;84.05
13934;BME280;7039;52.168;9.866;2023-03-25T18:22:04;99276.44;;;9.36;83.78
13934;BME280;7039;52.168;9.866;2023-03-25T18:24:31;99268.19;;;9.30;83.56
13934;BME280;7039;52.168;9.866;2023-03-25T18:26:58;99266.72;;;9.26;83.06
13934;BME280;7039;52.168;9.866;2023-03-25T18:29:25;99268.94;;;9.45;82.11
13934;BME280;7039;52.168;9.866;2023-03-25T18:31:53;99277.56;;;9.32;81.60
13934;BME280;7039;52.168;9.866;2023-03-25T18:34:20;99282.31;;;9.53;81.46
13934;BME280;7039;52.168;9.866;2023-03-25T18:36:48;99285.13;;;9.50;81.70
13934;BME280;7039;52.168;9.866;2023-03-25T18:39:18;99286.91;;;9.62;81.45
13934;BME280;7039;52.168;9.866;2023-03-25T18:41:46;99296.38;;;9.50;82.04
13934;BME280;7039;52.168;9.866;2023-03-25T18:44:13;99294.28;;;9.28;84.04
13934;BME280;7039;52.168;9.866;2023-03-25T18:46:39;99290.06;;;9.13;85.88
13934;BME280;7039;52.168;9.866;2023-03-25T18:49:10;99303.81;;;9.15;86.33
13934;BME280;7039;52.168;9.866;2023-03-25T18:51:37;99306.72;;;8.96;86.28
13934;BME280;7039;52.168;9.866;2023-03-25T18:54:04;99323.16;;;9.11;86.78
13934;BME280;7039;52.168;9.866;2023-03-25T18:56:32;99318.69;;;8.98;87.04
13934;BME280;7039;52.168;9.866;2023-03-25T18:58:58;99307.97;;;8.90;86.91
13934;BME280;7039;52.168;9.866;2023-03-25T19:01:25;99321.41;;;8.97;86.79
13934;BME280;7039;52.168;9.866;2023-03-25T19:03:51;99327.00;;;8.91;86.83
13934;BME280;7039;52.168;9.866;2023-03-25T19:06:18;99331.03;;;9.09;86.04
13934;BME280;7039;52.168;9.866;2023-03-25T19:08:45;99333.75;;;8.93;86.43
13934;BME280;7039;52.168;9.866;2023-03-25T19:11:13;99332.00;;;8.80;85.73
13934;BME280;7039;52.168;9.866;2023-03-25T19:13:41;99338.31;;;8.90;85.40
13934;BME280;7039;52.168;9.866;2023-03-25T19:16:08;99351.13;;;8.93;84.50